sensor_id;sensor_type;location;lat;lon;timestamp;P1;durP1;ratioP1;P2;durP2;ratioP2
52432;SDS011;38352;53.244;6.594;2023-08-06T00:00:43;17.92;;;12.18;;
52432;SDS011;38352;53.244;6.594;2023-08-06T00:03:09;18.27;;;11.80;;
52432;SDS011;38352;53.244;6.594;2023-08-06T00:05:35;16.45;;;11.00;;
52432;SDS011;38352;53.244;6.594;2023-08-06T00:08:12;18.92;;;11.82;;
52432;SDS011;38352;53.244;6.594;2023-08-06T00:10:44;16.50;;;11.18;;
52432;SDS011;38352;53.244;6.594;2023-08-06T00:13:15;15.85;;;11.23;;
52432;SDS011;38352;53.244;6.594;2023-08-06T00:15:47;17.73;;;11.77;;
52432;SDS011;38352;53.244;6.594;2023-08-06T00:18:14;14.95;;;10.35;;
52432;SDS011;38352;53.244;6.594;2023-08-06T00:20:44;13.20;;;9.20;;
52432;SDS011;38352;53.244;6.594;2023-08-06T00:23:10;14.25;;;10.05;;
52432;SDS011;38352;53.244;6.594;2023-08-06T00:25:39;14.60;;;10.18;;
52432;SDS011;38352;53.244;6.594;2023-08-06T00:28:05;16.63;;;11.43;;
52432;SDS011;38352;53.244;6.594;2023-08-06T00:30:31;17.38;;;10.95;;
52432;SDS011;38352;53.244;6.594;2023-08-06T00:32:57;17.85;;;10.57;;
52432;SDS011;38352;53.244;6.594;2023-08-06T00:35:26;18.00;;;10.95;;
52432;SDS011;38352;53.244;6.594;2023-08-06T00:37:55;17.25;;;10.10;;
52432;SDS011;38352;53.244;6.594;2023-08-06T00:40:24;17.88;;;10.73;;
52432;SDS011;38352;53.244;6.594;2023-08-06T00:42:53;13.93;;;10.45;;
52432;SDS011;38352;53.244;6.594;2023-08-06T00:45:20;15.65;;;10.68;;
52432;SDS011;38352;53.244;6.594;2023-08-06T00:47:52;16.73;;;11.50;;
52432;SDS011;38352;53.244;6.594;2023-08-06T00:50:18;15.40;;;10.68;;
52432;SDS011;38352;53.244;6.594;2023-08-06T00:52:46;21.42;;;11.40;;
52432;SDS011;38352;53.244;6.594;2023-08-06T00:55:12;17.52;;;11.10;;
52432;SDS011;38352;53.244;6.594;2023-08-06T00:57:47;15.60;;;10.93;;
52432;SDS011;38352;53.244;6.594;2023-08-06T01:00:15;16.70;;;11.52;;
52432;SDS011;38352;53.244;6.594;2023-08-06T01:02:41;18.77;;;11.65;;
52432;SDS011;38352;53.244;6.594;2023-08-06T01:05:08;14.60;;;10.75;;
52432;SDS011;38352;53.244;6.594;2023-08-06T01:13:27;15.60;;;10.98;;
52432;SDS011;38352;53.244;6.594;2023-08-06T01:15:58;18.52;;;12.20;;
52432;SDS011;38352;53.244;6.594;2023-08-06T01:18:25;18.73;;;10.93;;
52432;SDS011;38352;53.244;6.594;2023-08-06T01:20:51;19.40;;;13.63;;
52432;SDS011;38352;53.244;6.594;2023-08-06T01:23:18;18.30;;;11.85;;
52432;SDS011;38352;53.244;6.594;2023-08-06T01:28:33;19.00;;;12.68;;
52432;SDS011;38352;53.244;6.594;2023-08-06T01:31:15;18.13;;;11.68;;
52432;SDS011;38352;53.244;6.594;2023-08-06T01:33:42;21.52;;;13.75;;
52432;SDS011;38352;53.244;6.594;2023-08-06T01:36:10;19.35;;;12.65;;
52432;SDS011;38352;53.244;6.594;2023-08-06T01:38:38;20.70;;;13.18;;
52432;SDS011;38352;53.244;6.594;2023-08-06T01:41:07;17.92;;;11.85;;
52432;SDS011;38352;53.244;6.594;2023-08-06T01:43:33;19.48;;;13.23;;
52432;SDS011;38352;53.244;6.594;2023-08-06T01:45:59;21.23;;;12.05;;
52432;SDS011;38352;53.244;6.594;2023-08-06T01:48:32;16.67;;;12.45;;
52432;SDS011;38352;53.244;6.594;2023-08-06T01:50:58;19.63;;;13.20;;
52432;SDS011;38352;53.244;6.594;2023-08-06T01:53:24;20.65;;;13.52;;
52432;SDS011;38352;53.244;6.594;2023-08-06T01:55:51;25.23;;;15.10;;
52432;SDS011;38352;53.244;6.594;2023-08-06T01:58:17;23.35;;;13.32;;
52432;SDS011;38352;53.244;6.594;2023-08-06T02:00:43;20.40;;;14.18;;
52432;SDS011;38352;53.244;6.594;2023-08-06T02:03:09;23.38;;;13.80;;
52432;SDS011;38352;53.244;6.594;2023-08-06T02:05:39;20.45;;;14.75;;
52432;SDS011;38352;53.244;6.594;2023-08-06T02:08:05;20.73;;;14.20;;
52432;SDS011;38352;53.244;6.594;2023-08-06T02:10:34;25.45;;;14.38;;
52432;SDS011;38352;53.244;6.594;2023-08-06T02:13:02;24.35;;;14.13;;
52432;SDS011;38352;53.244;6.594;2023-08-06T02:15:32;21.45;;;15.00;;
52432;SDS011;38352;53.244;6.594;2023-08-06T02:17:58;23.20;;;14.65;;
52432;SDS011;38352;53.244;6.594;2023-08-06T02:20:24;26.80;;;15.70;;
52432;SDS011;38352;53.244;6.594;2023-08-06T02:22:53;25.25;;;15.48;;
52432;SDS011;38352;53.244;6.594;2023-08-06T02:25:24;21.73;;;15.48;;
52432;SDS011;38352;53.244;6.594;2023-08-06T02:27:50;23.92;;;14.95;;
52432;SDS011;38352;53.244;6.594;2023-08-06T02:30:20;26.45;;;14.82;;
52432;SDS011;38352;53.244;6.594;2023-08-06T02:32:46;25.88;;;17.40;;
52432;SDS011;38352;53.244;6.594;2023-08-06T02:35:12;23.23;;;15.65;;
52432;SDS011;38352;53.244;6.594;2023-08-06T02:37:38;28.48;;;16.15;;
52432;SDS011;38352;53.244;6.594;2023-08-06T02:40:13;27.80;;;16.95;;
52432;SDS011;38352;53.244;6.594;2023-08-06T02:42:39;24.50;;;16.40;;
52432;SDS011;38352;53.244;6.594;2023-08-06T02:45:06;27.65;;;17.38;;
52432;SDS011;38352;53.244;6.594;2023-08-06T02:47:32;26.33;;;16.98;;
52432;SDS011;38352;53.244;6.594;2023-08-06T02:50:00;30.98;;;16.38;;
52432;SDS011;38352;53.244;6.594;2023-08-06T02:52:26;25.73;;;17.27;;
52432;SDS011;38352;53.244;6.594;2023-08-06T02:54:52;23.95;;;15.70;;
52432;SDS011;38352;53.244;6.594;2023-08-06T02:57:18;26.40;;;17.98;;
52432;SDS011;38352;53.244;6.594;2023-08-06T02:59:44;25.92;;;15.93;;
52432;SDS011;38352;53.244;6.594;2023-08-06T03:02:10;23.88;;;15.70;;
52432;SDS011;38352;53.244;6.594;2023-08-06T03:04:36;24.92;;;15.80;;
52432;SDS011;38352;53.244;6.594;2023-08-06T03:07:02;24.02;;;15.02;;
52432;SDS011;38352;53.244;6.594;2023-08-06T03:09:28;24.67;;;17.30;;
52432;SDS011;38352;53.244;6.594;2023-08-06T03:11:55;24.52;;;16.90;;
52432;SDS011;38352;53.244;6.594;2023-08-06T03:14:21;23.35;;;16.10;;
52432;SDS011;38352;53.244;6.594;2023-08-06T03:16:47;22.73;;;14.77;;
52432;SDS011;38352;53.244;6.594;2023-08-06T03:19:13;23.63;;;15.80;;
52432;SDS011;38352;53.244;6.594;2023-08-06T03:21:39;23.67;;;15.40;;
52432;SDS011;38352;53.244;6.594;2023-08-06T03:24:06;23.95;;;15.77;;
52432;SDS011;38352;53.244;6.594;2023-08-06T03:26:32;24.73;;;16.33;;
52432;SDS011;38352;53.244;6.594;2023-08-06T03:28:58;27.95;;;16.60;;
52432;SDS011;38352;53.244;6.594;2023-08-06T03:31:30;26.85;;;16.75;;
52432;SDS011;38352;53.244;6.594;2023-08-06T03:33:56;27.27;;;16.23;;
52432;SDS011;38352;53.244;6.594;2023-08-06T03:36:22;23.00;;;14.30;;
52432;SDS011;38352;53.244;6.594;2023-08-06T03:38:48;23.45;;;15.75;;
52432;SDS011;38352;53.244;6.594;2023-08-06T03:41:14;23.88;;;16.38;;
52432;SDS011;38352;53.244;6.594;2023-08-06T03:43:40;22.00;;;14.38;;
52432;SDS011;38352;53.244;6.594;2023-08-06T03:46:06;22.92;;;15.73;;
52432;SDS011;38352;53.244;6.594;2023-08-06T03:48:32;21.88;;;15.30;;
52432;SDS011;38352;53.244;6.594;2023-08-06T03:50:59;29.67;;;14.48;;
52432;SDS011;38352;53.244;6.594;2023-08-06T03:53:27;22.77;;;15.38;;
52432;SDS011;38352;53.244;6.594;2023-08-06T03:55:53;24.33;;;15.55;;
52432;SDS011;38352;53.244;6.594;2023-08-06T03:58:20;22.08;;;14.98;;
52432;SDS011;38352;53.244;6.594;2023-08-06T04:00:47;25.52;;;16.30;;
52432;SDS011;38352;53.244;6.594;2023-08-06T04:03:13;23.85;;;14.95;;
52432;SDS011;38352;53.244;6.594;2023-08-06T04:05:39;24.83;;;16.40;;
52432;SDS011;38352;53.244;6.594;2023-08-06T04:08:05;24.08;;;15.77;;
52432;SDS011;38352;53.244;6.594;2023-08-06T04:10:31;21.63;;;14.85;;
52432;SDS011;38352;53.244;6.594;2023-08-06T04:12:57;23.13;;;14.88;;
52432;SDS011;38352;53.244;6.594;2023-08-06T04:15:24;25.25;;;15.20;;
52432;SDS011;38352;53.244;6.594;2023-08-06T04:17:50;20.63;;;13.93;;
52432;SDS011;38352;53.244;6.594;2023-08-06T04:20:16;26.65;;;14.57;;
52432;SDS011;38352;53.244;6.594;2023-08-06T04:22:42;21.42;;;14.20;;
52432;SDS011;38352;53.244;6.594;2023-08-06T04:25:08;20.85;;;13.82;;
52432;SDS011;38352;53.244;6.594;2023-08-06T04:27:35;19.83;;;13.95;;
52432;SDS011;38352;53.244;6.594;2023-08-06T04:30:02;21.60;;;13.25;;
52432;SDS011;38352;53.244;6.594;2023-08-06T04:32:30;22.27;;;14.85;;
52432;SDS011;38352;53.244;6.594;2023-08-06T04:34:56;21.20;;;13.50;;
52432;SDS011;38352;53.244;6.594;2023-08-06T04:37:22;19.65;;;12.57;;
52432;SDS011;38352;53.244;6.594;2023-08-06T04:39:48;19.17;;;12.25;;
52432;SDS011;38352;53.244;6.594;2023-08-06T04:42:14;19.70;;;13.23;;
52432;SDS011;38352;53.244;6.594;2023-08-06T04:44:40;20.55;;;13.10;;
52432;SDS011;38352;53.244;6.594;2023-08-06T04:47:07;21.95;;;13.52;;
52432;SDS011;38352;53.244;6.594;2023-08-06T04:49:33;18.60;;;13.13;;
52432;SDS011;38352;53.244;6.594;2023-08-06T04:51:59;20.65;;;14.23;;
52432;SDS011;38352;53.244;6.594;2023-08-06T04:54:28;20.98;;;13.13;;
52432;SDS011;38352;53.244;6.594;2023-08-06T04:56:55;20.55;;;12.50;;
52432;SDS011;38352;53.244;6.594;2023-08-06T04:59:21;20.05;;;13.15;;
52432;SDS011;38352;53.244;6.594;2023-08-06T05:01:47;17.23;;;12.32;;
52432;SDS011;38352;53.244;6.594;2023-08-06T05:04:13;18.65;;;13.13;;
52432;SDS011;38352;53.244;6.594;2023-08-06T05:06:39;17.63;;;12.32;;
52432;SDS011;38352;53.244;6.594;2023-08-06T05:09:07;19.50;;;12.23;;
52432;SDS011;38352;53.244;6.594;2023-08-06T05:11:33;18.02;;;12.13;;
52432;SDS011;38352;53.244;6.594;2023-08-06T05:13:59;20.00;;;12.07;;
52432;SDS011;38352;53.244;6.594;2023-08-06T05:16:26;22.20;;;13.18;;
52432;SDS011;38352;53.244;6.594;2023-08-06T05:18:52;19.55;;;13.32;;
52432;SDS011;38352;53.244;6.594;2023-08-06T05:21:18;19.75;;;12.88;;
52432;SDS011;38352;53.244;6.594;2023-08-06T05:23:44;19.88;;;12.20;;
52432;SDS011;38352;53.244;6.594;2023-08-06T05:26:10;18.73;;;13.20;;
52432;SDS011;38352;53.244;6.594;2023-08-06T05:28:36;20.80;;;13.52;;
52432;SDS011;38352;53.244;6.594;2023-08-06T05:31:03;18.67;;;13.38;;
52432;SDS011;38352;53.244;6.594;2023-08-06T05:33:29;18.70;;;12.77;;
52432;SDS011;38352;53.244;6.594;2023-08-06T05:35:55;19.23;;;12.43;;
52432;SDS011;38352;53.244;6.594;2023-08-06T05:38:21;20.33;;;12.00;;
52432;SDS011;38352;53.244;6.594;2023-08-06T05:40:47;20.58;;;12.73;;
52432;SDS011;38352;53.244;6.594;2023-08-06T05:43:14;19.23;;;12.75;;
52432;SDS011;38352;53.244;6.594;2023-08-06T05:45:44;17.08;;;11.63;;
52432;SDS011;38352;53.244;6.594;2023-08-06T05:48:10;21.10;;;12.75;;
52432;SDS011;38352;53.244;6.594;2023-08-06T05:50:36;20.77;;;13.15;;
52432;SDS011;38352;53.244;6.594;2023-08-06T05:53:02;18.23;;;12.40;;
52432;SDS011;38352;53.244;6.594;2023-08-06T05:55:28;20.20;;;12.00;;
52432;SDS011;38352;53.244;6.594;2023-08-06T05:57:56;19.30;;;11.93;;
52432;SDS011;38352;53.244;6.594;2023-08-06T06:00:22;20.00;;;12.60;;
52432;SDS011;38352;53.244;6.594;2023-08-06T06:02:48;18.65;;;11.50;;
52432;SDS011;38352;53.244;6.594;2023-08-06T06:05:14;18.00;;;11.82;;
52432;SDS011;38352;53.244;6.594;2023-08-06T06:07:40;16.20;;;11.25;;
52432;SDS011;38352;53.244;6.594;2023-08-06T06:10:06;17.92;;;11.73;;
52432;SDS011;38352;53.244;6.594;2023-08-06T06:12:33;14.98;;;10.93;;
52432;SDS011;38352;53.244;6.594;2023-08-06T06:14:59;17.38;;;10.98;;
52432;SDS011;38352;53.244;6.594;2023-08-06T06:17:26;16.48;;;10.10;;
52432;SDS011;38352;53.244;6.594;2023-08-06T06:19:52;14.80;;;10.48;;
52432;SDS011;38352;53.244;6.594;2023-08-06T06:22:18;15.52;;;9.70;;
52432;SDS011;38352;53.244;6.594;2023-08-06T06:24:44;13.57;;;9.27;;
52432;SDS011;38352;53.244;6.594;2023-08-06T06:27:11;13.73;;;9.20;;
52432;SDS011;38352;53.244;6.594;2023-08-06T06:29:40;11.90;;;8.60;;
52432;SDS011;38352;53.244;6.594;2023-08-06T06:32:06;12.23;;;8.75;;
52432;SDS011;38352;53.244;6.594;2023-08-06T06:34:32;10.48;;;7.30;;
52432;SDS011;38352;53.244;6.594;2023-08-06T06:36:59;10.98;;;8.00;;
52432;SDS011;38352;53.244;6.594;2023-08-06T06:39:25;14.98;;;8.75;;
52432;SDS011;38352;53.244;6.594;2023-08-06T06:41:51;12.15;;;7.82;;
52432;SDS011;38352;53.244;6.594;2023-08-06T06:44:17;13.23;;;8.40;;
52432;SDS011;38352;53.244;6.594;2023-08-06T06:46:45;13.75;;;9.25;;
52432;SDS011;38352;53.244;6.594;2023-08-06T06:49:11;13.30;;;8.48;;
52432;SDS011;38352;53.244;6.594;2023-08-06T06:51:38;10.90;;;8.15;;
52432;SDS011;38352;53.244;6.594;2023-08-06T06:54:04;11.07;;;8.07;;
52432;SDS011;38352;53.244;6.594;2023-08-06T06:56:30;10.82;;;7.95;;
52432;SDS011;38352;53.244;6.594;2023-08-06T06:58:56;10.90;;;7.68;;
52432;SDS011;38352;53.244;6.594;2023-08-06T07:01:22;12.20;;;8.27;;
52432;SDS011;38352;53.244;6.594;2023-08-06T07:03:48;11.52;;;8.05;;
52432;SDS011;38352;53.244;6.594;2023-08-06T07:06:15;13.20;;;7.90;;
52432;SDS011;38352;53.244;6.594;2023-08-06T07:08:43;10.45;;;7.28;;
52432;SDS011;38352;53.244;6.594;2023-08-06T07:11:09;11.77;;;7.40;;
52432;SDS011;38352;53.244;6.594;2023-08-06T07:13:35;13.10;;;8.05;;
52432;SDS011;38352;53.244;6.594;2023-08-06T07:16:07;11.93;;;8.23;;
52432;SDS011;38352;53.244;6.594;2023-08-06T07:18:33;11.35;;;8.10;;
52432;SDS011;38352;53.244;6.594;2023-08-06T07:21:02;12.77;;;7.70;;
52432;SDS011;38352;53.244;6.594;2023-08-06T07:23:28;11.40;;;7.35;;
52432;SDS011;38352;53.244;6.594;2023-08-06T07:25:54;11.15;;;7.45;;
52432;SDS011;38352;53.244;6.594;2023-08-06T07:28:20;8.98;;;6.55;;
52432;SDS011;38352;53.244;6.594;2023-08-06T07:30:47;9.70;;;7.07;;
52432;SDS011;38352;53.244;6.594;2023-08-06T07:33:14;10.02;;;7.40;;
52432;SDS011;38352;53.244;6.594;2023-08-06T07:35:40;9.35;;;6.85;;
52432;SDS011;38352;53.244;6.594;2023-08-06T07:38:08;10.10;;;7.13;;
52432;SDS011;38352;53.244;6.594;2023-08-06T07:40:35;12.88;;;7.53;;
52432;SDS011;38352;53.244;6.594;2023-08-06T07:43:02;10.98;;;7.43;;
52432;SDS011;38352;53.244;6.594;2023-08-06T07:45:32;11.60;;;7.05;;
52432;SDS011;38352;53.244;6.594;2023-08-06T07:47:58;10.05;;;6.60;;
52432;SDS011;38352;53.244;6.594;2023-08-06T07:50:25;12.27;;;7.82;;
52432;SDS011;38352;53.244;6.594;2023-08-06T07:52:51;11.07;;;7.40;;
52432;SDS011;38352;53.244;6.594;2023-08-06T07:55:17;13.70;;;7.50;;
52432;SDS011;38352;53.244;6.594;2023-08-06T07:57:44;10.73;;;7.25;;
52432;SDS011;38352;53.244;6.594;2023-08-06T08:00:10;10.13;;;7.22;;
52432;SDS011;38352;53.244;6.594;2023-08-06T08:02:36;11.13;;;7.50;;
52432;SDS011;38352;53.244;6.594;2023-08-06T08:05:02;11.50;;;7.47;;
52432;SDS011;38352;53.244;6.594;2023-08-06T08:07:28;14.35;;;7.28;;
52432;SDS011;38352;53.244;6.594;2023-08-06T08:09:56;8.80;;;6.28;;
52432;SDS011;38352;53.244;6.594;2023-08-06T08:12:22;8.75;;;6.53;;
52432;SDS011;38352;53.244;6.594;2023-08-06T08:14:48;9.52;;;6.68;;
52432;SDS011;38352;53.244;6.594;2023-08-06T08:17:14;11.68;;;6.93;;
52432;SDS011;38352;53.244;6.594;2023-08-06T08:19:40;10.32;;;6.32;;
52432;SDS011;38352;53.244;6.594;2023-08-06T08:22:07;10.55;;;6.95;;
52432;SDS011;38352;53.244;6.594;2023-08-06T08:24:33;9.05;;;6.45;;
52432;SDS011;38352;53.244;6.594;2023-08-06T08:26:59;9.13;;;6.25;;
52432;SDS011;38352;53.244;6.594;2023-08-06T08:29:25;10.48;;;7.45;;
52432;SDS011;38352;53.244;6.594;2023-08-06T08:31:51;9.88;;;6.15;;
52432;SDS011;38352;53.244;6.594;2023-08-06T08:34:17;12.05;;;6.63;;
52432;SDS011;38352;53.244;6.594;2023-08-06T08:36:46;8.85;;;6.75;;
52432;SDS011;38352;53.244;6.594;2023-08-06T08:39:13;9.20;;;7.00;;
52432;SDS011;38352;53.244;6.594;2023-08-06T08:41:45;9.35;;;6.20;;
52432;SDS011;38352;53.244;6.594;2023-08-06T08:44:11;8.95;;;6.30;;
52432;SDS011;38352;53.244;6.594;2023-08-06T08:46:45;6.97;;;5.60;;
52432;SDS011;38352;53.244;6.594;2023-08-06T08:49:13;6.90;;;4.55;;
52432;SDS011;38352;53.244;6.594;2023-08-06T08:51:39;9.23;;;5.53;;
52432;SDS011;38352;53.244;6.594;2023-08-06T08:54:05;6.50;;;4.72;;
52432;SDS011;38352;53.244;6.594;2023-08-06T08:56:36;7.72;;;4.82;;
52432;SDS011;38352;53.244;6.594;2023-08-06T08:59:07;9.43;;;4.93;;
52432;SDS011;38352;53.244;6.594;2023-08-06T09:01:36;10.77;;;4.97;;
52432;SDS011;38352;53.244;6.594;2023-08-06T09:04:04;7.68;;;4.65;;
52432;SDS011;38352;53.244;6.594;2023-08-06T09:06:30;7.15;;;4.30;;
52432;SDS011;38352;53.244;6.594;2023-08-06T09:09:01;7.72;;;4.63;;
52432;SDS011;38352;53.244;6.594;2023-08-06T09:11:35;5.75;;;4.03;;
52432;SDS011;38352;53.244;6.594;2023-08-06T09:14:06;5.10;;;3.35;;
52432;SDS011;38352;53.244;6.594;2023-08-06T09:16:35;6.15;;;2.92;;
52432;SDS011;38352;53.244;6.594;2023-08-06T09:19:11;4.82;;;2.75;;
52432;SDS011;38352;53.244;6.594;2023-08-06T09:21:38;4.60;;;2.83;;
52432;SDS011;38352;53.244;6.594;2023-08-06T09:24:20;4.93;;;2.58;;
52432;SDS011;38352;53.244;6.594;2023-08-06T09:26:47;4.18;;;2.50;;
52432;SDS011;38352;53.244;6.594;2023-08-06T09:29:13;4.80;;;2.90;;
52432;SDS011;38352;53.244;6.594;2023-08-06T09:31:42;7.63;;;3.22;;
52432;SDS011;38352;53.244;6.594;2023-08-06T09:36:41;4.82;;;2.63;;
52432;SDS011;38352;53.244;6.594;2023-08-06T09:39:20;5.53;;;3.00;;
52432;SDS011;38352;53.244;6.594;2023-08-06T09:41:47;4.63;;;2.90;;
52432;SDS011;38352;53.244;6.594;2023-08-06T09:44:17;5.25;;;2.40;;
52432;SDS011;38352;53.244;6.594;2023-08-06T09:46:53;7.93;;;2.60;;
52432;SDS011;38352;53.244;6.594;2023-08-06T09:49:19;4.65;;;2.47;;
52432;SDS011;38352;53.244;6.594;2023-08-06T09:51:49;4.97;;;2.70;;
52432;SDS011;38352;53.244;6.594;2023-08-06T09:54:17;4.50;;;2.33;;
52432;SDS011;38352;53.244;6.594;2023-08-06T09:56:44;4.25;;;2.45;;
52432;SDS011;38352;53.244;6.594;2023-08-06T09:59:10;3.70;;;2.00;;
52432;SDS011;38352;53.244;6.594;2023-08-06T10:01:37;3.65;;;2.20;;
52432;SDS011;38352;53.244;6.594;2023-08-06T10:04:03;5.05;;;2.17;;
52432;SDS011;38352;53.244;6.594;2023-08-06T10:06:31;5.03;;;2.28;;
52432;SDS011;38352;53.244;6.594;2023-08-06T10:08:59;3.90;;;2.33;;
52432;SDS011;38352;53.244;6.594;2023-08-06T10:11:26;4.78;;;2.45;;
52432;SDS011;38352;53.244;6.594;2023-08-06T10:13:53;5.15;;;2.80;;
52432;SDS011;38352;53.244;6.594;2023-08-06T10:16:20;4.93;;;2.60;;
52432;SDS011;38352;53.244;6.594;2023-08-06T10:18:47;6.95;;;2.90;;
52432;SDS011;38352;53.244;6.594;2023-08-06T10:21:13;4.45;;;2.63;;
52432;SDS011;38352;53.244;6.594;2023-08-06T10:23:41;4.88;;;2.47;;
52432;SDS011;38352;53.244;6.594;2023-08-06T10:26:07;4.70;;;2.30;;
52432;SDS011;38352;53.244;6.594;2023-08-06T10:28:34;4.57;;;2.70;;
52432;SDS011;38352;53.244;6.594;2023-08-06T10:31:01;4.47;;;2.67;;
52432;SDS011;38352;53.244;6.594;2023-08-06T10:33:45;5.93;;;2.90;;
52432;SDS011;38352;53.244;6.594;2023-08-06T10:36:12;4.85;;;2.80;;
52432;SDS011;38352;53.244;6.594;2023-08-06T10:38:48;5.30;;;2.47;;
52432;SDS011;38352;53.244;6.594;2023-08-06T10:41:35;4.03;;;2.45;;
52432;SDS011;38352;53.244;6.594;2023-08-06T10:44:10;4.85;;;2.45;;
52432;SDS011;38352;53.244;6.594;2023-08-06T10:46:36;3.30;;;2.20;;
52432;SDS011;38352;53.244;6.594;2023-08-06T10:49:03;5.53;;;2.33;;
52432;SDS011;38352;53.244;6.594;2023-08-06T10:51:30;4.35;;;2.55;;
52432;SDS011;38352;53.244;6.594;2023-08-06T10:53:56;3.90;;;2.30;;
52432;SDS011;38352;53.244;6.594;2023-08-06T10:56:26;5.57;;;2.35;;
52432;SDS011;38352;53.244;6.594;2023-08-06T10:58:55;4.25;;;2.20;;
52432;SDS011;38352;53.244;6.594;2023-08-06T11:01:22;3.65;;;2.30;;
52432;SDS011;38352;53.244;6.594;2023-08-06T11:03:49;3.58;;;2.28;;
52432;SDS011;38352;53.244;6.594;2023-08-06T11:06:18;8.50;;;2.55;;
52432;SDS011;38352;53.244;6.594;2023-08-06T11:08:49;3.58;;;2.13;;
52432;SDS011;38352;53.244;6.594;2023-08-06T11:11:15;4.05;;;2.15;;
52432;SDS011;38352;53.244;6.594;2023-08-06T11:13:47;4.57;;;2.10;;
52432;SDS011;38352;53.244;6.594;2023-08-06T11:16:14;4.88;;;2.30;;
52432;SDS011;38352;53.244;6.594;2023-08-06T11:18:40;5.63;;;2.42;;
52432;SDS011;38352;53.244;6.594;2023-08-06T11:21:07;5.68;;;2.42;;
52432;SDS011;38352;53.244;6.594;2023-08-06T11:23:33;4.05;;;2.38;;
52432;SDS011;38352;53.244;6.594;2023-08-06T11:26:00;4.65;;;2.42;;
52432;SDS011;38352;53.244;6.594;2023-08-06T11:28:26;4.32;;;2.50;;
52432;SDS011;38352;53.244;6.594;2023-08-06T11:30:52;4.47;;;2.38;;
52432;SDS011;38352;53.244;6.594;2023-08-06T11:33:20;4.43;;;2.28;;
52432;SDS011;38352;53.244;6.594;2023-08-06T11:35:47;6.28;;;2.53;;
52432;SDS011;38352;53.244;6.594;2023-08-06T11:38:13;4.45;;;2.50;;
52432;SDS011;38352;53.244;6.594;2023-08-06T11:40:41;4.72;;;2.40;;
52432;SDS011;38352;53.244;6.594;2023-08-06T11:43:07;3.42;;;2.00;;
52432;SDS011;38352;53.244;6.594;2023-08-06T11:45:34;4.45;;;2.22;;
52432;SDS011;38352;53.244;6.594;2023-08-06T11:48:01;4.20;;;2.58;;
52432;SDS011;38352;53.244;6.594;2023-08-06T11:50:28;3.95;;;2.13;;
52432;SDS011;38352;53.244;6.594;2023-08-06T11:52:59;4.55;;;2.08;;
52432;SDS011;38352;53.244;6.594;2023-08-06T11:55:26;5.22;;;2.22;;
52432;SDS011;38352;53.244;6.594;2023-08-06T11:57:53;3.90;;;2.28;;
52432;SDS011;38352;53.244;6.594;2023-08-06T12:00:19;5.35;;;2.58;;
52432;SDS011;38352;53.244;6.594;2023-08-06T12:02:47;3.30;;;2.05;;
52432;SDS011;38352;53.244;6.594;2023-08-06T12:05:15;4.70;;;2.60;;
52432;SDS011;38352;53.244;6.594;2023-08-06T12:07:45;4.13;;;2.28;;
52432;SDS011;38352;53.244;6.594;2023-08-06T12:10:12;3.97;;;2.45;;
52432;SDS011;38352;53.244;6.594;2023-08-06T12:12:38;5.72;;;2.15;;
52432;SDS011;38352;53.244;6.594;2023-08-06T12:15:04;4.75;;;2.92;;
52432;SDS011;38352;53.244;6.594;2023-08-06T12:17:34;3.28;;;2.13;;
52432;SDS011;38352;53.244;6.594;2023-08-06T12:20:01;4.38;;;2.58;;
52432;SDS011;38352;53.244;6.594;2023-08-06T12:22:29;5.15;;;2.45;;
52432;SDS011;38352;53.244;6.594;2023-08-06T12:25:00;4.10;;;2.53;;
52432;SDS011;38352;53.244;6.594;2023-08-06T12:27:26;3.63;;;2.30;;
52432;SDS011;38352;53.244;6.594;2023-08-06T12:29:52;5.25;;;2.03;;
52432;SDS011;38352;53.244;6.594;2023-08-06T12:32:18;4.45;;;2.45;;
52432;SDS011;38352;53.244;6.594;2023-08-06T12:34:44;3.38;;;1.95;;
52432;SDS011;38352;53.244;6.594;2023-08-06T12:37:11;4.50;;;2.25;;
52432;SDS011;38352;53.244;6.594;2023-08-06T12:39:37;5.97;;;2.53;;
52432;SDS011;38352;53.244;6.594;2023-08-06T12:42:04;3.28;;;1.70;;
52432;SDS011;38352;53.244;6.594;2023-08-06T12:44:30;4.55;;;2.30;;
52432;SDS011;38352;53.244;6.594;2023-08-06T12:46:56;3.90;;;2.08;;
52432;SDS011;38352;53.244;6.594;2023-08-06T12:49:22;4.60;;;2.30;;
52432;SDS011;38352;53.244;6.594;2023-08-06T12:51:50;3.92;;;1.98;;
52432;SDS011;38352;53.244;6.594;2023-08-06T12:54:16;4.80;;;2.00;;
52432;SDS011;38352;53.244;6.594;2023-08-06T12:56:43;3.08;;;2.15;;
52432;SDS011;38352;53.244;6.594;2023-08-06T12:59:09;3.10;;;1.90;;
52432;SDS011;38352;53.244;6.594;2023-08-06T13:01:36;4.97;;;2.45;;
52432;SDS011;38352;53.244;6.594;2023-08-06T13:04:03;4.35;;;2.00;;
52432;SDS011;38352;53.244;6.594;2023-08-06T13:06:29;3.38;;;1.95;;
52432;SDS011;38352;53.244;6.594;2023-08-06T13:08:56;5.30;;;2.15;;
52432;SDS011;38352;53.244;6.594;2023-08-06T13:11:22;4.75;;;2.30;;
52432;SDS011;38352;53.244;6.594;2023-08-06T13:13:49;4.68;;;2.35;;
52432;SDS011;38352;53.244;6.594;2023-08-06T13:16:15;4.85;;;2.42;;
52432;SDS011;38352;53.244;6.594;2023-08-06T13:18:41;7.10;;;2.30;;
52432;SDS011;38352;53.244;6.594;2023-08-06T13:21:07;3.80;;;2.25;;
52432;SDS011;38352;53.244;6.594;2023-08-06T13:23:33;4.25;;;1.92;;
52432;SDS011;38352;53.244;6.594;2023-08-06T13:25:59;3.47;;;1.92;;
52432;SDS011;38352;53.244;6.594;2023-08-06T13:28:25;5.40;;;2.40;;
52432;SDS011;38352;53.244;6.594;2023-08-06T13:30:51;3.72;;;1.90;;
52432;SDS011;38352;53.244;6.594;2023-08-06T13:33:17;3.28;;;2.00;;
52432;SDS011;38352;53.244;6.594;2023-08-06T13:35:43;4.05;;;2.10;;
52432;SDS011;38352;53.244;6.594;2023-08-06T13:38:10;3.80;;;1.92;;
52432;SDS011;38352;53.244;6.594;2023-08-06T13:40:36;4.38;;;2.00;;
52432;SDS011;38352;53.244;6.594;2023-08-06T13:43:02;4.28;;;2.03;;
52432;SDS011;38352;53.244;6.594;2023-08-06T13:45:28;3.92;;;2.30;;
52432;SDS011;38352;53.244;6.594;2023-08-06T13:47:56;7.45;;;2.70;;
52432;SDS011;38352;53.244;6.594;2023-08-06T13:50:22;10.35;;;2.55;;
52432;SDS011;38352;53.244;6.594;2023-08-06T13:52:50;3.83;;;2.20;;
52432;SDS011;38352;53.244;6.594;2023-08-06T13:55:18;3.65;;;2.15;;
52432;SDS011;38352;53.244;6.594;2023-08-06T13:57:44;4.63;;;2.08;;
52432;SDS011;38352;53.244;6.594;2023-08-06T14:00:10;4.93;;;2.15;;
52432;SDS011;38352;53.244;6.594;2023-08-06T14:02:36;3.17;;;2.20;;
52432;SDS011;38352;53.244;6.594;2023-08-06T14:05:03;3.45;;;2.10;;
52432;SDS011;38352;53.244;6.594;2023-08-06T14:07:29;4.03;;;1.80;;
52432;SDS011;38352;53.244;6.594;2023-08-06T14:09:55;3.85;;;1.90;;
52432;SDS011;38352;53.244;6.594;2023-08-06T14:12:22;4.15;;;1.85;;
52432;SDS011;38352;53.244;6.594;2023-08-06T14:14:48;4.43;;;1.92;;
52432;SDS011;38352;53.244;6.594;2023-08-06T14:17:14;4.82;;;2.00;;
52432;SDS011;38352;53.244;6.594;2023-08-06T14:19:41;4.32;;;2.10;;
52432;SDS011;38352;53.244;6.594;2023-08-06T14:22:07;3.42;;;1.70;;
52432;SDS011;38352;53.244;6.594;2023-08-06T14:24:33;3.40;;;1.92;;
52432;SDS011;38352;53.244;6.594;2023-08-06T14:26:59;4.45;;;1.90;;
52432;SDS011;38352;53.244;6.594;2023-08-06T14:29:25;3.20;;;1.80;;
52432;SDS011;38352;53.244;6.594;2023-08-06T14:31:51;3.25;;;1.80;;
52432;SDS011;38352;53.244;6.594;2023-08-06T14:34:17;4.57;;;2.20;;
52432;SDS011;38352;53.244;6.594;2023-08-06T14:36:43;2.80;;;1.83;;
52432;SDS011;38352;53.244;6.594;2023-08-06T14:39:09;3.67;;;1.83;;
52432;SDS011;38352;53.244;6.594;2023-08-06T14:41:35;3.65;;;1.65;;
52432;SDS011;38352;53.244;6.594;2023-08-06T14:44:01;4.85;;;2.00;;
52432;SDS011;38352;53.244;6.594;2023-08-06T14:46:28;3.75;;;1.98;;